sensor_id;sensor_type;location;lat;lon;timestamp;pressure;altitude;pressure_sealevel;temperature;humidity
4273;BME280;63887;53.656;9.810;2023-03-23T00:01:37;100291.06;;;10.39;94.05
4273;BME280;63887;53.656;9.810;2023-03-23T00:04:05;100293.03;;;10.50;94.02
4273;BME280;63887;53.656;9.810;2023-03-23T00:06:32;100288.97;;;10.02;96.12
4273;BME280;63887;53.656;9.810;2023-03-23T00:09:00;100289.13;;;10.43;95.44
4273;BME280;63887;53.656;9.810;2023-03-23T00:11:31;100287.88;;;10.34;94.90
4273;BME280;63887;53.656;9.810;2023-03-23T00:14:00;100280.03;;;10.34;95.62
4273;BME280;63887;53.656;9.810;2023-03-23T00:16:29;100285.16;;;10.22;95.71
4273;BME280;63887;53.656;9.810;2023-03-23T00:18:59;100282.09;;;10.43;95.06
4273;BME280;63887;53.656;9.810;2023-03-23T00:21:28;100262.59;;;10.62;94.49
4273;BME280;63887;53.656;9.810;2023-03-23T00:24:00;100269.97;;;10.55;94.75
4273;BME280;63887;53.656;9.810;2023-03-23T00:26:27;100262.88;;;10.57;95.15
4273;BME280;63887;53.656;9.810;2023-03-23T00:28:54;100265.63;;;10.41;96.18
4273;BME280;63887;53.656;9.810;2023-03-23T00:31:21;100250.72;;;10.28;96.90
4273;BME280;63887;53.656;9.810;2023-03-23T00:33:47;100253.16;;;10.45;96.55
4273;BME280;63887;53.656;9.810;2023-03-23T00:36:14;100245.28;;;10.45;96.22
4273;BME280;63887;53.656;9.810;2023-03-23T00:38:42;100254.34;;;10.39;96.83
4273;BME280;63887;53.656;9.810;2023-03-23T00:41:09;100240.78;;;10.47;96.76
4273;BME280;63887;53.656;9.810;2023-03-23T00:43:36;100229.81;;;10.26;97.50
4273;BME280;63887;53.656;9.810;2023-03-23T00:46:04;100225.47;;;10.27;97.27
4273;BME280;63887;53.656;9.810;2023-03-23T00:48:35;100217.28;;;10.17;97.50
4273;BME280;63887;53.656;9.810;2023-03-23T00:51:06;100223.28;;;10.48;96.45
4273;BME280;63887;53.656;9.810;2023-03-23T00:53:35;100231.44;;;10.43;96.90
4273;BME280;63887;53.656;9.810;2023-03-23T00:56:03;100230.84;;;10.52;96.23
4273;BME280;63887;53.656;9.810;2023-03-23T00:58:30;100235.34;;;10.36;97.35
4273;BME280;63887;53.656;9.810;2023-03-23T01:00:56;100213.91;;;10.58;97.04
4273;BME280;63887;53.656;9.810;2023-03-23T01:03:23;100216.22;;;10.62;96.98
4273;BME280;63887;53.656;9.810;2023-03-23T01:05:51;100214.16;;;10.53;96.47
4273;BME280;63887;53.656;9.810;2023-03-23T01:08:18;100203.38;;;10.72;95.47
4273;BME280;63887;53.656;9.810;2023-03-23T01:10:47;100197.06;;;10.48;96.81
4273;BME280;63887;53.656;9.810;2023-03-23T01:13:15;100201.19;;;10.23;98.18
4273;BME280;63887;53.656;9.810;2023-03-23T01:15:42;100197.44;;;10.13;98.54
4273;BME280;63887;53.656;9.810;2023-03-23T01:18:09;100187.50;;;10.47;98.39
4273;BME280;63887;53.656;9.810;2023-03-23T01:20:36;100195.84;;;10.25;98.33
4273;BME280;63887;53.656;9.810;2023-03-23T01:23:03;100181.84;;;10.53;97.42
4273;BME280;63887;53.656;9.810;2023-03-23T01:25:32;100174.34;;;10.61;97.43
4273;BME280;63887;53.656;9.810;2023-03-23T01:27:58;100162.25;;;10.85;96.06
4273;BME280;63887;53.656;9.810;2023-03-23T01:30:26;100150.72;;;10.75;95.97
4273;BME280;63887;53.656;9.810;2023-03-23T01:32:54;100145.88;;;10.82;95.43
4273;BME280;63887;53.656;9.810;2023-03-23T01:35:21;100148.81;;;10.77;96.17
4273;BME280;63887;53.656;9.810;2023-03-23T01:37:48;100146.63;;;10.84;95.75
4273;BME280;63887;53.656;9.810;2023-03-23T01:40:14;100141.69;;;10.52;97.26
4273;BME280;63887;53.656;9.810;2023-03-23T01:42:41;100140.84;;;10.52;97.48
4273;BME280;63887;53.656;9.810;2023-03-23T01:45:28;100148.91;;;10.49;97.59
4273;BME280;63887;53.656;9.810;2023-03-23T01:47:59;100138.53;;;10.74;97.05
4273;BME280;63887;53.656;9.810;2023-03-23T01:50:29;100133.03;;;10.64;96.99
4273;BME280;63887;53.656;9.810;2023-03-23T01:53:01;100132.00;;;10.26;98.02
4273;BME280;63887;53.656;9.810;2023-03-23T01:55:29;100125.69;;;10.57;96.78
4273;BME280;63887;53.656;9.810;2023-03-23T01:57:56;100125.28;;;10.63;97.33
4273;BME280;63887;53.656;9.810;2023-03-23T02:00:24;100123.75;;;10.46;98.28
4273;BME280;63887;53.656;9.810;2023-03-23T02:02:54;100123.47;;;10.63;97.63
4273;BME280;63887;53.656;9.810;2023-03-23T02:05:27;100123.09;;;10.42;98.20
4273;BME280;63887;53.656;9.810;2023-03-23T02:07:57;100119.66;;;10.55;98.41
4273;BME280;63887;53.656;9.810;2023-03-23T02:10:28;100126.47;;;10.84;96.87
4273;BME280;63887;53.656;9.810;2023-03-23T02:12:54;100125.41;;;10.74;97.48
4273;BME280;63887;53.656;9.810;2023-03-23T02:15:21;100125.69;;;10.69;97.87
4273;BME280;63887;53.656;9.810;2023-03-23T02:17:57;100134.47;;;10.56;98.49
4273;BME280;63887;53.656;9.810;2023-03-23T02:20:47;100118.28;;;10.76;97.91
4273;BME280;63887;53.656;9.810;2023-03-23T02:23:37;100120.22;;;10.60;97.34
4273;BME280;63887;53.656;9.810;2023-03-23T02:26:19;100112.38;;;10.60;98.32
4273;BME280;63887;53.656;9.810;2023-03-23T02:29:18;100111.75;;;10.69;97.62
4273;BME280;63887;53.656;9.810;2023-03-23T02:32:04;100103.00;;;10.56;98.29
4273;BME280;63887;53.656;9.810;2023-03-23T02:34:38;100107.53;;;10.66;96.86
4273;BME280;63887;53.656;9.810;2023-03-23T02:37:11;100101.66;;;10.63;97.46
4273;BME280;63887;53.656;9.810;2023-03-23T02:39:43;100098.94;;;10.64;98.63
4273;BME280;63887;53.656;9.810;2023-03-23T02:42:13;100085.78;;;10.52;98.86
4273;BME280;63887;53.656;9.810;2023-03-23T02:44:43;100093.81;;;10.36;99.33
4273;BME280;63887;53.656;9.810;2023-03-23T02:47:14;100093.13;;;10.47;99.41
4273;BME280;63887;53.656;9.810;2023-03-23T02:49:45;100097.63;;;10.71;98.07
4273;BME280;63887;53.656;9.810;2023-03-23T02:52:17;100088.81;;;10.85;96.67
4273;BME280;63887;53.656;9.810;2023-03-23T02:54:46;100076.03;;;10.54;98.17
4273;BME280;63887;53.656;9.810;2023-03-23T02:57:14;100081.25;;;10.81;97.53
4273;BME280;63887;53.656;9.810;2023-03-23T02:59:41;100075.66;;;10.60;97.49
4273;BME280;63887;53.656;9.810;2023-03-23T03:02:10;100078.66;;;10.54;97.77
4273;BME280;63887;53.656;9.810;2023-03-23T03:04:40;100074.00;;;10.71;98.28
4273;BME280;63887;53.656;9.810;2023-03-23T03:07:23;100063.00;;;10.79;97.24
4273;BME280;63887;53.656;9.810;2023-03-23T03:09:56;100068.66;;;10.73;97.16
4273;BME280;63887;53.656;9.810;2023-03-23T03:12:32;100063.53;;;10.44;98.40
4273;BME280;63887;53.656;9.810;2023-03-23T03:15:07;100048.63;;;10.72;97.93
4273;BME280;63887;53.656;9.810;2023-03-23T03:17:38;100044.19;;;10.60;97.92
4273;BME280;63887;53.656;9.810;2023-03-23T03:20:09;100041.03;;;10.67;97.56
4273;BME280;63887;53.656;9.810;2023-03-23T03:22:39;100036.16;;;10.49;98.04
4273;BME280;63887;53.656;9.810;2023-03-23T03:25:09;100025.75;;;10.74;98.06
4273;BME280;63887;53.656;9.810;2023-03-23T03:27:38;100013.75;;;10.70;97.08
4273;BME280;63887;53.656;9.810;2023-03-23T03:30:09;100034.03;;;10.41;97.82
4273;BME280;63887;53.656;9.810;2023-03-23T03:32:41;100035.16;;;10.64;97.58
4273;BME280;63887;53.656;9.810;2023-03-23T03:35:11;100048.28;;;10.64;98.04
4273;BME280;63887;53.656;9.810;2023-03-23T03:37:41;100043.56;;;10.29;99.04
4273;BME280;63887;53.656;9.810;2023-03-23T03:40:10;100031.03;;;10.47;99.19
4273;BME280;63887;53.656;9.810;2023-03-23T03:42:37;100039.94;;;10.44;98.69
4273;BME280;63887;53.656;9.810;2023-03-23T03:45:05;100055.16;;;10.52;98.61
4273;BME280;63887;53.656;9.810;2023-03-23T03:47:33;100049.63;;;10.69;98.14
4273;BME280;63887;53.656;9.810;2023-03-23T03:50:00;100038.38;;;10.55;98.16
4273;BME280;63887;53.656;9.810;2023-03-23T03:52:26;100044.09;;;10.74;98.08
4273;BME280;63887;53.656;9.810;2023-03-23T03:54:55;100029.03;;;10.51;98.54
4273;BME280;63887;53.656;9.810;2023-03-23T03:57:22;100026.63;;;10.48;98.37
4273;BME280;63887;53.656;9.810;2023-03-23T03:59:48;100047.56;;;10.74;97.63
4273;BME280;63887;53.656;9.810;2023-03-23T04:02:15;100038.03;;;10.86;96.56
4273;BME280;63887;53.656;9.810;2023-03-23T04:04:45;100020.50;;;10.74;96.27
4273;BME280;63887;53.656;9.810;2023-03-23T04:07:11;100029.63;;;10.81;95.86
4273;BME280;63887;53.656;9.810;2023-03-23T04:09:38;100035.22;;;10.50;97.81
4273;BME280;63887;53.656;9.810;2023-03-23T04:12:06;100039.66;;;10.62;97.08
4273;BME280;63887;53.656;9.810;2023-03-23T04:14:34;100044.03;;;10.88;95.78
4273;BME280;63887;53.656;9.810;2023-03-23T04:17:00;100027.63;;;10.72;96.58
4273;BME280;63887;53.656;9.810;2023-03-23T04:19:27;100029.31;;;10.73;95.94
4273;BME280;63887;53.656;9.810;2023-03-23T04:21:58;100032.66;;;10.75;95.88
4273;BME280;63887;53.656;9.810;2023-03-23T04:24:24;100034.56;;;10.73;97.14
4273;BME280;63887;53.656;9.810;2023-03-23T04:26:53;100032.94;;;10.70;96.14
4273;BME280;63887;53.656;9.810;2023-03-23T04:29:21;100035.06;;;10.65;96.99
4273;BME280;63887;53.656;9.810;2023-03-23T04:31:48;100047.31;;;10.65;97.59
4273;BME280;63887;53.656;9.810;2023-03-23T04:34:16;100048.69;;;10.58;97.33
4273;BME280;63887;53.656;9.810;2023-03-23T04:36:43;100047.34;;;10.78;96.77
4273;BME280;63887;53.656;9.810;2023-03-23T04:39:09;100044.72;;;10.65;96.63
4273;BME280;63887;53.656;9.810;2023-03-23T04:41:36;100039.16;;;10.57;97.46
4273;BME280;63887;53.656;9.810;2023-03-23T04:44:03;100039.53;;;10.51;98.36
4273;BME280;63887;53.656;9.810;2023-03-23T04:46:32;100035.50;;;10.72;97.85
4273;BME280;63887;53.656;9.810;2023-03-23T04:48:58;100034.50;;;10.48;98.64
4273;BME280;63887;53.656;9.810;2023-03-23T04:51:25;100026.13;;;10.68;97.56
4273;BME280;63887;53.656;9.810;2023-03-23T04:53:52;100023.97;;;10.87;96.48
4273;BME280;63887;53.656;9.810;2023-03-23T04:56:19;100027.34;;;10.89;95.57
4273;BME280;63887;53.656;9.810;2023-03-23T04:58:46;100029.06;;;10.63;96.98
4273;BME280;63887;53.656;9.810;2023-03-23T05:01:13;100026.13;;;10.68;96.91
4273;BME280;63887;53.656;9.810;2023-03-23T05:03:41;100021.84;;;10.67;97.05
4273;BME280;63887;53.656;9.810;2023-03-23T05:06:09;100027.41;;;10.75;95.87
4273;BME280;63887;53.656;9.810;2023-03-23T05:08:36;100026.69;;;10.73;95.98
4273;BME280;63887;53.656;9.810;2023-03-23T05:11:04;100034.94;;;10.67;96.41
4273;BME280;63887;53.656;9.810;2023-03-23T05:13:31;100033.16;;;10.67;96.71
4273;BME280;63887;53.656;9.810;2023-03-23T05:15:58;100023.09;;;10.61;97.05
4273;BME280;63887;53.656;9.810;2023-03-23T05:18:28;100017.31;;;10.69;96.37
4273;BME280;63887;53.656;9.810;2023-03-23T05:21:00;100013.28;;;10.90;95.89
4273;BME280;63887;53.656;9.810;2023-03-23T05:23:27;100019.56;;;10.75;96.17
4273;BME280;63887;53.656;9.810;2023-03-23T05:25:57;100025.84;;;10.72;96.31
4273;BME280;63887;53.656;9.810;2023-03-23T05:28:25;100026.91;;;10.83;95.44
4273;BME280;63887;53.656;9.810;2023-03-23T05:30:52;100028.06;;;10.79;95.79
4273;BME280;63887;53.656;9.810;2023-03-23T05:33:19;100030.44;;;10.69;95.88
4273;BME280;63887;53.656;9.810;2023-03-23T05:35:46;100022.69;;;10.80;95.30
4273;BME280;63887;53.656;9.810;2023-03-23T05:38:15;100015.69;;;10.41;96.76
4273;BME280;63887;53.656;9.810;2023-03-23T05:40:43;100014.91;;;10.66;95.60
4273;BME280;63887;53.656;9.810;2023-03-23T05:43:10;100014.94;;;10.39;96.96
4273;BME280;63887;53.656;9.810;2023-03-23T05:45:37;100012.81;;;10.71;96.08
4273;BME280;63887;53.656;9.810;2023-03-23T05:48:04;100008.81;;;10.53;96.52
4273;BME280;63887;53.656;9.810;2023-03-23T05:50:30;100007.66;;;10.69;95.97
4273;BME280;63887;53.656;9.810;2023-03-23T05:52:57;100002.56;;;10.81;95.21
4273;BME280;63887;53.656;9.810;2023-03-23T05:55:25;100003.72;;;10.77;95.64
4273;BME280;63887;53.656;9.810;2023-03-23T05:57:51;100009.44;;;10.69;96.26
4273;BME280;63887;53.656;9.810;2023-03-23T06:00:18;100005.34;;;10.52;96.26
4273;BME280;63887;53.656;9.810;2023-03-23T06:02:48;100010.09;;;10.85;94.91
4273;BME280;63887;53.656;9.810;2023-03-23T06:05:16;100011.34;;;10.67;95.84
4273;BME280;63887;53.656;9.810;2023-03-23T06:07:43;100003.06;;;10.86;94.58
4273;BME280;63887;53.656;9.810;2023-03-23T06:10:09;99990.75;;;10.48;95.99
4273;BME280;63887;53.656;9.810;2023-03-23T06:12:38;99988.28;;;10.59;94.97
4273;BME280;63887;53.656;9.810;2023-03-23T06:15:07;99989.50;;;10.54;95.85
4273;BME280;63887;53.656;9.810;2023-03-23T06:17:33;99992.13;;;10.54;96.06
4273;BME280;63887;53.656;9.810;2023-03-23T06:20:02;99996.06;;;10.73;94.76
4273;BME280;63887;53.656;9.810;2023-03-23T06:22:31;99995.22;;;10.73;94.96
4273;BME280;63887;53.656;9.810;2023-03-23T06:24:58;99993.44;;;10.86;94.04
4273;BME280;63887;53.656;9.810;2023-03-23T06:27:25;100001.59;;;10.69;94.28
4273;BME280;63887;53.656;9.810;2023-03-23T06:29:54;100009.38;;;11.09;92.99
4273;BME280;63887;53.656;9.810;2023-03-23T06:32:22;100001.31;;;10.73;94.92
4273;BME280;63887;53.656;9.810;2023-03-23T06:34:48;100006.31;;;11.15;94.09
4273;BME280;63887;53.656;9.810;2023-03-23T06:37:15;100012.63;;;11.12;93.57
4273;BME280;63887;53.656;9.810;2023-03-23T06:39:42;100003.31;;;11.21;93.40
4273;BME280;63887;53.656;9.810;2023-03-23T06:42:09;100012.31;;;11.29;92.16
4273;BME280;63887;53.656;9.810;2023-03-23T06:44:37;100008.19;;;11.51;91.68
4273;BME280;63887;53.656;9.810;2023-03-23T06:47:05;100004.28;;;11.56;91.35
4273;BME280;63887;53.656;9.810;2023-03-23T06:49:32;99996.44;;;11.44;92.58
4273;BME280;63887;53.656;9.810;2023-03-23T06:51:59;99998.88;;;11.21;92.28
4273;BME280;63887;53.656;9.810;2023-03-23T06:54:27;100000.66;;;11.46;91.90
4273;BME280;63887;53.656;9.810;2023-03-23T06:56:53;100009.88;;;11.52;91.49
4273;BME280;63887;53.656;9.810;2023-03-23T06:59:20;100001.63;;;11.32;91.75
4273;BME280;63887;53.656;9.810;2023-03-23T07:01:46;100001.78;;;11.55;91.67
4273;BME280;63887;53.656;9.810;2023-03-23T07:04:15;100006.28;;;11.65;90.82
4273;BME280;63887;53.656;9.810;2023-03-23T07:06:41;100009.91;;;11.88;89.41
4273;BME280;63887;53.656;9.810;2023-03-23T07:09:07;100005.22;;;12.05;89.39
4273;BME280;63887;53.656;9.810;2023-03-23T07:11:34;100005.22;;;11.68;89.86
4273;BME280;63887;53.656;9.810;2023-03-23T07:14:01;100007.09;;;11.66;89.40
4273;BME280;63887;53.656;9.810;2023-03-23T07:16:27;99995.53;;;11.81;88.68
4273;BME280;63887;53.656;9.810;2023-03-23T07:18:54;100001.28;;;11.86;89.21
4273;BME280;63887;53.656;9.810;2023-03-23T07:21:22;100017.88;;;11.50;91.02
4273;BME280;63887;53.656;9.810;2023-03-23T07:23:48;100013.44;;;11.63;90.50
4273;BME280;63887;53.656;9.810;2023-03-23T07:26:14;100021.72;;;11.57;91.17
4273;BME280;63887;53.656;9.810;2023-03-23T07:28:42;100025.19;;;11.58;91.37
4273;BME280;63887;53.656;9.810;2023-03-23T07:31:08;100035.16;;;11.65;91.22
4273;BME280;63887;53.656;9.810;2023-03-23T07:33:35;100032.72;;;11.88;90.48
4273;BME280;63887;53.656;9.810;2023-03-23T07:36:03;100061.56;;;11.39;92.27
4273;BME280;63887;53.656;9.810;2023-03-23T07:38:31;100080.16;;;11.48;92.41
4273;BME280;63887;53.656;9.810;2023-03-23T07:40:57;100070.91;;;11.30;93.22
4273;BME280;63887;53.656;9.810;2023-03-23T07:43:24;100089.81;;;11.22;93.89
4273;BME280;63887;53.656;9.810;2023-03-23T07:45:51;100078.22;;;10.99;96.05
4273;BME280;63887;53.656;9.810;2023-03-23T07:48:18;100074.03;;;10.97;96.39
4273;BME280;63887;53.656;9.810;2023-03-23T07:50:44;100073.81;;;10.87;98.28
4273;BME280;63887;53.656;9.810;2023-03-23T07:53:11;100071.38;;;10.84;96.16
4273;BME280;63887;53.656;9.810;2023-03-23T07:55:38;100073.41;;;10.93;96.58
4273;BME280;63887;53.656;9.810;2023-03-23T07:58:05;100074.53;;;10.77;96.38
4273;BME280;63887;53.656;9.810;2023-03-23T08:00:32;100079.69;;;10.91;91.55
4273;BME280;63887;53.656;9.810;2023-03-23T08:02:59;100077.22;;;10.62;91.81
4273;BME280;63887;53.656;9.810;2023-03-23T08:05:26;100080.78;;;10.61;92.07
4273;BME280;63887;53.656;9.810;2023-03-23T08:07:54;100096.88;;;10.42;91.84
4273;BME280;63887;53.656;9.810;2023-03-23T08:10:22;100082.69;;;10.32;93.83
4273;BME280;63887;53.656;9.810;2023-03-23T08:12:53;100079.53;;;10.13;94.37
4273;BME280;63887;53.656;9.810;2023-03-23T08:15:20;100094.19;;;10.30;93.50
4273;BME280;63887;53.656;9.810;2023-03-23T08:17:48;100085.63;;;9.99;95.86
4273;BME280;63887;53.656;9.810;2023-03-23T08:20:16;100082.91;;;10.01;95.61
4273;BME280;63887;53.656;9.810;2023-03-23T08:22:44;100088.19;;;10.42;94.73
4273;BME280;63887;53.656;9.810;2023-03-23T08:25:13;100090.22;;;10.64;94.19
4273;BME280;63887;53.656;9.810;2023-03-23T08:27:42;100092.16;;;10.74;92.10
4273;BME280;63887;53.656;9.810;2023-03-23T08:30:13;100081.56;;;10.22;94.80
4273;BME280;63887;53.656;9.810;2023-03-23T08:32:40;100089.25;;;10.52;93.73
4273;BME280;63887;53.656;9.810;2023-03-23T08:35:07;100084.47;;;10.59;95.38
4273;BME280;63887;53.656;9.810;2023-03-23T08:37:36;100086.78;;;10.63;95.21
4273;BME280;63887;53.656;9.810;2023-03-23T08:40:04;100087.69;;;10.89;93.62
4273;BME280;63887;53.656;9.810;2023-03-23T08:42:34;100093.00;;;10.75;92.64
4273;BME280;63887;53.656;9.810;2023-03-23T08:45:01;100092.22;;;10.60;93.98
4273;BME280;63887;53.656;9.810;2023-03-23T08:47:29;100098.41;;;10.59;94.51
4273;BME280;63887;53.656;9.810;2023-03-23T08:49:56;100100.63;;;11.05;93.10
4273;BME280;63887;53.656;9.810;2023-03-23T08:52:22;100103.66;;;11.12;92.21
4273;BME280;63887;53.656;9.810;2023-03-23T08:54:49;100103.16;;;11.32;90.49
4273;BME280;63887;53.656;9.810;2023-03-23T08:57:16;100087.69;;;11.15;91.65
4273;BME280;63887;53.656;9.810;2023-03-23T08:59:43;100103.25;;;11.30;91.59
4273;BME280;63887;53.656;9.810;2023-03-23T09:02:10;100110.47;;;11.01;91.89
4273;BME280;63887;53.656;9.810;2023-03-23T09:04:39;100121.72;;;11.29;90.74
4273;BME280;63887;53.656;9.810;2023-03-23T09:07:07;100123.00;;;11.36;90.40
4273;BME280;63887;53.656;9.810;2023-03-23T09:09:34;100123.22;;;11.46;90.94
4273;BME280;63887;53.656;9.810;2023-03-23T09:12:01;100120.88;;;11.28;91.54
4273;BME280;63887;53.656;9.810;2023-03-23T09:14:27;100115.97;;;11.49;90.40
4273;BME280;63887;53.656;9.810;2023-03-23T09:16:53;100127.44;;;11.48;91.76
4273;BME280;63887;53.656;9.810;2023-03-23T09:19:20;100127.09;;;11.65;90.38
4273;BME280;63887;53.656;9.810;2023-03-23T09:21:47;100131.09;;;11.84;89.70
4273;BME280;63887;53.656;9.810;2023-03-23T09:24:15;100128.44;;;12.09;88.28
4273;BME280;63887;53.656;9.810;2023-03-23T09:26:41;100130.41;;;12.18;87.52
4273;BME280;63887;53.656;9.810;2023-03-23T09:29:07;100122.25;;;11.98;88.45
4273;BME280;63887;53.656;9.810;2023-03-23T09:31:34;100128.91;;;12.27;87.81
4273;BME280;63887;53.656;9.810;2023-03-23T09:34:02;100137.50;;;12.05;88.11
4273;BME280;63887;53.656;9.810;2023-03-23T09:36:29;100133.75;;;11.84;88.89
4273;BME280;63887;53.656;9.810;2023-03-23T09:38:58;100130.13;;;12.34;88.44
4273;BME280;63887;53.656;9.810;2023-03-23T09:41:38;100137.88;;;12.96;85.89
4273;BME280;63887;53.656;9.810;2023-03-23T09:44:15;100138.72;;;12.49;85.51
4273;BME280;63887;53.656;9.810;2023-03-23T09:46:52;100142.38;;;12.35;87.26
4273;BME280;63887;53.656;9.810;2023-03-23T09:49:23;100136.28;;;12.94;85.02
4273;BME280;63887;53.656;9.810;2023-03-23T09:51:54;100138.38;;;12.77;84.33
4273;BME280;63887;53.656;9.810;2023-03-23T09:54:26;100146.50;;;12.98;84.13
4273;BME280;63887;53.656;9.810;2023-03-23T09:56:54;100152.06;;;13.41;79.86
4273;BME280;63887;53.656;9.810;2023-03-23T09:59:24;100167.16;;;13.39;83.24
4273;BME280;63887;53.656;9.810;2023-03-23T10:01:57;100156.84;;;13.12;82.54
4273;BME280;63887;53.656;9.810;2023-03-23T10:04:34;100162.19;;;13.35;82.26
4273;BME280;63887;53.656;9.810;2023-03-23T10:07:09;100162.19;;;13.35;81.47
4273;BME280;63887;53.656;9.810;2023-03-23T10:09:38;100167.16;;;13.62;79.38
4273;BME280;63887;53.656;9.810;2023-03-23T10:12:12;100159.97;;;13.53;80.08
4273;BME280;63887;53.656;9.810;2023-03-23T10:14:55;100164.66;;;13.60;80.85
4273;BME280;63887;53.656;9.810;2023-03-23T10:17:28;100155.47;;;13.99;78.97
4273;BME280;63887;53.656;9.810;2023-03-23T10:20:09;100165.97;;;13.55;79.82
4273;BME280;63887;53.656;9.810;2023-03-23T10:22:45;100167.31;;;13.71;76.58
4273;BME280;63887;53.656;9.810;2023-03-23T10:25:19;100180.00;;;13.55;78.44
4273;BME280;63887;53.656;9.810;2023-03-23T10:27:50;100174.97;;;13.97;76.23
4273;BME280;63887;53.656;9.810;2023-03-23T10:30:22;100165.88;;;14.23;75.29
4273;BME280;63887;53.656;9.810;2023-03-23T10:32:53;100169.72;;;14.08;76.70
4273;BME280;63887;53.656;9.810;2023-03-23T10:35:25;100183.97;;;13.72;75.82
4273;BME280;63887;53.656;9.810;2023-03-23T10:37:56;100189.94;;;13.63;75.10
4273;BME280;63887;53.656;9.810;2023-03-23T10:40:29;100200.81;;;13.23;77.85
4273;BME280;63887;53.656;9.810;2023-03-23T10:42:56;100199.44;;;13.30;76.45
4273;BME280;63887;53.656;9.810;2023-03-23T10:45:27;100206.22;;;13.22;76.99
4273;BME280;63887;53.656;9.810;2023-03-23T10:50:45;100208.50;;;13.61;76.37
4273;BME280;63887;53.656;9.810;2023-03-23T10:53:16;100199.03;;;13.59;74.78
4273;BME280;63887;53.656;9.810;2023-03-23T10:55:45;100207.59;;;13.14;77.19
4273;BME280;63887;53.656;9.810;2023-03-23T10:58:21;100211.47;;;13.22;74.76
4273;BME280;63887;53.656;9.810;2023-03-23T11:00:49;100222.50;;;13.03;75.30
4273;BME280;63887;53.656;9.810;2023-03-23T11:03:29;100218.88;;;13.40;73.40
4273;BME280;63887;53.656;9.810;2023-03-23T11:06:01;100214.09;;;13.22;74.75
4273;BME280;63887;53.656;9.810;2023-03-23T11:08:30;100215.66;;;13.48;75.29
4273;BME280;63887;53.656;9.810;2023-03-23T11:11:09;100222.19;;;13.78;73.48
4273;BME280;63887;53.656;9.810;2023-03-23T11:13:39;100222.16;;;13.66;73.77
4273;BME280;63887;53.656;9.810;2023-03-23T11:16:09;100212.97;;;13.13;74.77
4273;BME280;63887;53.656;9.810;2023-03-23T11:18:38;100218.06;;;13.03;74.92
4273;BME280;63887;53.656;9.810;2023-03-23T11:21:06;100212.66;;;13.53;72.78
4273;BME280;63887;53.656;9.810;2023-03-23T11:23:35;100215.72;;;13.70;70.80
4273;BME280;63887;53.656;9.810;2023-03-23T11:26:11;100216.31;;;13.74;69.00
4273;BME280;63887;53.656;9.810;2023-03-23T11:28:43;100211.59;;;13.55;69.54
4273;BME280;63887;53.656;9.810;2023-03-23T11:31:11;100211.25;;;13.60;71.08
4273;BME280;63887;53.656;9.810;2023-03-23T11:33:42;100214.88;;;13.81;68.12
4273;BME280;63887;53.656;9.810;2023-03-23T11:36:12;100218.50;;;14.02;68.13
4273;BME280;63887;53.656;9.810;2023-03-23T11:38:40;100222.38;;;13.63;69.22
4273;BME280;63887;53.656;9.810;2023-03-23T11:41:11;100223.03;;;13.89;68.23
4273;BME280;63887;53.656;9.810;2023-03-23T11:43:44;100214.66;;;14.07;67.94
4273;BME280;63887;53.656;9.810;2023-03-23T11:46:18;100206.81;;;13.60;70.72
4273;BME280;63887;53.656;9.810;2023-03-23T11:48:52;100191.13;;;13.59;69.98
4273;BME280;63887;53.656;9.810;2023-03-23T11:51:38;100185.66;;;13.95;69.06
4273;BME280;63887;53.656;9.810;2023-03-23T11:54:16;100221.97;;;14.03;67.56
4273;BME280;63887;53.656;9.810;2023-03-23T11:56:47;100242.50;;;13.64;68.99
4273;BME280;63887;53.656;9.810;2023-03-23T11:59:15;100249.91;;;14.06;67.90
4273;BME280;63887;53.656;9.810;2023-03-23T12:01:52;100263.66;;;13.87;68.23
4273;BME280;63887;53.656;9.810;2023-03-23T12:04:37;100251.41;;;13.75;68.07
4273;BME280;63887;53.656;9.810;2023-03-23T12:07:25;100238.59;;;13.11;70.73
4273;BME280;63887;53.656;9.810;2023-03-23T12:10:00;100224.81;;;13.31;69.38
4273;BME280;63887;53.656;9.810;2023-03-23T12:12:37;100225.63;;;13.56;69.81
4273;BME280;63887;53.656;9.810;2023-03-23T12:15:16;100241.81;;;13.27;70.98
4273;BME280;63887;53.656;9.810;2023-03-23T12:17:51;100243.72;;;13.60;69.45
4273;BME280;63887;53.656;9.810;2023-03-23T12:20:28;100244.91;;;13.67;68.49
4273;BME280;63887;53.656;9.810;2023-03-23T12:23:11;100242.22;;;13.45;70.40
4273;BME280;63887;53.656;9.810;2023-03-23T12:32:05;100237.69;;;13.23;75.47
4273;BME280;63887;53.656;9.810;2023-03-23T12:34:41;100233.97;;;13.50;74.87
4273;BME280;63887;53.656;9.810;2023-03-23T12:37:28;100234.84;;;13.61;74.79
4273;BME280;63887;53.656;9.810;2023-03-23T12:40:23;100229.16;;;13.90;71.66
4273;BME280;63887;53.656;9.810;2023-03-23T12:42:57;100223.66;;;13.47;74.67
4273;BME280;63887;53.656;9.810;2023-03-23T12:45:47;100226.63;;;13.77;73.58
4273;BME280;63887;53.656;9.810;2023-03-23T12:48:20;100226.41;;;13.91;72.85
4273;BME280;63887;53.656;9.810;2023-03-23T12:51:04;100226.75;;;13.98;72.09
4273;BME280;63887;53.656;9.810;2023-03-23T12:53:38;100222.88;;;13.57;74.40
4273;BME280;63887;53.656;9.810;2023-03-23T12:56:13;100217.88;;;13.77;72.43
4273;BME280;63887;53.656;9.810;2023-03-23T12:58:44;100214.09;;;14.14;72.10
4273;BME280;63887;53.656;9.810;2023-03-23T13:01:14;100214.44;;;14.43;70.05
4273;BME280;63887;53.656;9.810;2023-03-23T13:03:51;100215.63;;;14.50;70.58
4273;BME280;63887;53.656;9.810;2023-03-23T13:06:23;100225.22;;;14.29;70.92
4273;BME280;63887;53.656;9.810;2023-03-23T13:08:56;100230.28;;;13.63;73.99
4273;BME280;63887;53.656;9.810;2023-03-23T13:11:31;100220.16;;;13.92;72.89
4273;BME280;63887;53.656;9.810;2023-03-23T13:14:04;100221.84;;;13.93;73.34
4273;BME280;63887;53.656;9.810;2023-03-23T13:16:38;100214.06;;;13.92;72.57
4273;BME280;63887;53.656;9.810;2023-03-23T13:19:16;100205.06;;;13.94;71.98
4273;BME280;63887;53.656;9.810;2023-03-23T13:21:45;100205.53;;;13.77;73.95
4273;BME280;63887;53.656;9.810;2023-03-23T13:24:15;100212.53;;;14.00;72.51